sensor_id;sensor_type;location;lat;lon;timestamp;P1;durP1;ratioP1;P2;durP2;ratioP2
58071;SDS011;60383;46.626;18.866;2022-09-03T00:13:08;3.63;;;3.17;;
58071;SDS011;60383;46.626;18.866;2022-09-03T00:15:34;5.68;;;2.72;;
58071;SDS011;60383;46.626;18.866;2022-09-03T00:18:26;5.72;;;3.10;;
58071;SDS011;60383;46.626;18.866;2022-09-03T00:21:03;4.38;;;3.17;;
58071;SDS011;60383;46.626;18.866;2022-09-03T00:23:34;3.90;;;3.10;;
58071;SDS011;60383;46.626;18.866;2022-09-03T00:28:40;4.10;;;3.00;;
58071;SDS011;60383;46.626;18.866;2022-09-03T00:33:42;4.50;;;2.95;;
58071;SDS011;60383;46.626;18.866;2022-09-03T00:36:14;3.72;;;3.20;;
58071;SDS011;60383;46.626;18.866;2022-09-03T00:38:44;3.83;;;3.10;;
58071;SDS011;60383;46.626;18.866;2022-09-03T00:46:18;4.70;;;3.28;;
58071;SDS011;60383;46.626;18.866;2022-09-03T01:28:57;3.22;;;2.90;;
58071;SDS011;60383;46.626;18.866;2022-09-03T01:34:07;3.40;;;2.88;;
58071;SDS011;60383;46.626;18.866;2022-09-03T01:41:57;3.45;;;2.88;;
58071;SDS011;60383;46.626;18.866;2022-09-03T01:49:42;3.42;;;3.00;;
58071;SDS011;60383;46.626;18.866;2022-09-03T01:58:13;4.80;;;3.65;;
58071;SDS011;60383;46.626;18.866;2022-09-03T02:00:42;5.65;;;4.72;;
58071;SDS011;60383;46.626;18.866;2022-09-03T02:03:10;5.57;;;4.00;;
58071;SDS011;60383;46.626;18.866;2022-09-03T02:05:37;4.70;;;3.60;;
58071;SDS011;60383;46.626;18.866;2022-09-03T02:08:07;4.47;;;3.33;;
58071;SDS011;60383;46.626;18.866;2022-09-03T02:13:17;4.88;;;3.15;;
58071;SDS011;60383;46.626;18.866;2022-09-03T02:15:47;4.43;;;3.10;;
58071;SDS011;60383;46.626;18.866;2022-09-03T02:18:18;3.38;;;3.08;;
58071;SDS011;60383;46.626;18.866;2022-09-03T02:20:53;3.63;;;3.20;;
58071;SDS011;60383;46.626;18.866;2022-09-03T02:23:19;3.30;;;3.00;;
58071;SDS011;60383;46.626;18.866;2022-09-03T02:25:47;5.30;;;3.17;;
58071;SDS011;60383;46.626;18.866;2022-09-03T02:28:16;4.45;;;3.13;;
58071;SDS011;60383;46.626;18.866;2022-09-03T02:30:41;5.22;;;3.03;;
58071;SDS011;60383;46.626;18.866;2022-09-03T02:33:07;4.15;;;3.10;;
58071;SDS011;60383;46.626;18.866;2022-09-03T02:35:33;3.58;;;2.92;;
58071;SDS011;60383;46.626;18.866;2022-09-03T02:38:14;4.35;;;3.25;;
58071;SDS011;60383;46.626;18.866;2022-09-03T02:40:42;3.97;;;3.10;;
58071;SDS011;60383;46.626;18.866;2022-09-03T02:43:16;3.72;;;2.95;;
58071;SDS011;60383;46.626;18.866;2022-09-03T02:46:01;4.32;;;3.30;;
58071;SDS011;60383;46.626;18.866;2022-09-03T02:48:29;4.68;;;3.05;;
58071;SDS011;60383;46.626;18.866;2022-09-03T02:50:54;4.88;;;2.85;;
58071;SDS011;60383;46.626;18.866;2022-09-03T02:53:20;6.00;;;3.00;;
58071;SDS011;60383;46.626;18.866;2022-09-03T02:55:45;3.42;;;3.10;;
58071;SDS011;60383;46.626;18.866;2022-09-03T02:58:11;5.78;;;3.20;;
58071;SDS011;60383;46.626;18.866;2022-09-03T03:00:36;3.70;;;3.00;;
58071;SDS011;60383;46.626;18.866;2022-09-03T03:03:02;4.03;;;2.95;;
58071;SDS011;60383;46.626;18.866;2022-09-03T03:08:08;4.40;;;2.90;;
58071;SDS011;60383;46.626;18.866;2022-09-03T03:10:33;6.30;;;3.00;;
58071;SDS011;60383;46.626;18.866;2022-09-03T03:12:59;3.15;;;2.85;;
58071;SDS011;60383;46.626;18.866;2022-09-03T03:15:25;4.60;;;2.90;;
58071;SDS011;60383;46.626;18.866;2022-09-03T03:17:54;4.75;;;2.85;;
58071;SDS011;60383;46.626;18.866;2022-09-03T03:20:20;3.47;;;2.90;;
58071;SDS011;60383;46.626;18.866;2022-09-03T03:22:46;3.22;;;2.92;;
58071;SDS011;60383;46.626;18.866;2022-09-03T03:25:11;5.95;;;3.08;;
58071;SDS011;60383;46.626;18.866;2022-09-03T03:27:37;3.70;;;2.90;;
58071;SDS011;60383;46.626;18.866;2022-09-03T03:30:05;4.18;;;3.08;;
58071;SDS011;60383;46.626;18.866;2022-09-03T03:32:34;4.18;;;2.83;;
58071;SDS011;60383;46.626;18.866;2022-09-03T03:35:00;3.30;;;3.00;;
58071;SDS011;60383;46.626;18.866;2022-09-03T03:37:25;5.88;;;3.08;;
58071;SDS011;60383;46.626;18.866;2022-09-03T03:39:51;4.18;;;2.92;;
58071;SDS011;60383;46.626;18.866;2022-09-03T03:42:16;4.90;;;2.90;;
58071;SDS011;60383;46.626;18.866;2022-09-03T03:45:00;3.53;;;2.90;;
58071;SDS011;60383;46.626;18.866;2022-09-03T03:47:27;3.65;;;3.05;;
58071;SDS011;60383;46.626;18.866;2022-09-03T03:49:54;4.03;;;3.30;;
58071;SDS011;60383;46.626;18.866;2022-09-03T03:52:20;3.42;;;2.97;;
58071;SDS011;60383;46.626;18.866;2022-09-03T03:54:46;4.35;;;3.53;;
58071;SDS011;60383;46.626;18.866;2022-09-03T03:57:13;4.80;;;3.10;;
58071;SDS011;60383;46.626;18.866;2022-09-03T03:59:38;4.88;;;3.17;;
58071;SDS011;60383;46.626;18.866;2022-09-03T04:02:04;3.75;;;3.20;;
58071;SDS011;60383;46.626;18.866;2022-09-03T04:04:29;4.70;;;3.20;;
58071;SDS011;60383;46.626;18.866;2022-09-03T04:06:55;4.40;;;3.28;;
58071;SDS011;60383;46.626;18.866;2022-09-03T04:09:20;4.35;;;3.00;;
58071;SDS011;60383;46.626;18.866;2022-09-03T04:11:46;3.38;;;2.85;;
58071;SDS011;60383;46.626;18.866;2022-09-03T04:14:11;4.78;;;3.63;;
58071;SDS011;60383;46.626;18.866;2022-09-03T04:16:37;4.55;;;4.05;;
58071;SDS011;60383;46.626;18.866;2022-09-03T04:19:02;4.72;;;3.33;;
58071;SDS011;60383;46.626;18.866;2022-09-03T04:21:29;4.60;;;3.72;;
58071;SDS011;60383;46.626;18.866;2022-09-03T04:23:55;5.35;;;3.85;;
58071;SDS011;60383;46.626;18.866;2022-09-03T04:26:25;3.90;;;3.33;;
58071;SDS011;60383;46.626;18.866;2022-09-03T04:28:55;5.28;;;4.10;;
58071;SDS011;60383;46.626;18.866;2022-09-03T04:31:22;5.10;;;3.72;;
58071;SDS011;60383;46.626;18.866;2022-09-03T04:33:47;9.18;;;8.30;;
58071;SDS011;60383;46.626;18.866;2022-09-03T04:36:14;5.93;;;3.90;;
58071;SDS011;60383;46.626;18.866;2022-09-03T04:38:41;7.10;;;3.53;;
58071;SDS011;60383;46.626;18.866;2022-09-03T04:41:10;5.32;;;3.67;;
58071;SDS011;60383;46.626;18.866;2022-09-03T04:43:38;5.20;;;3.70;;
58071;SDS011;60383;46.626;18.866;2022-09-03T04:46:06;6.43;;;4.03;;
58071;SDS011;60383;46.626;18.866;2022-09-03T04:48:34;5.72;;;4.50;;
58071;SDS011;60383;46.626;18.866;2022-09-03T04:51:07;4.63;;;3.35;;
58071;SDS011;60383;46.626;18.866;2022-09-03T04:53:36;6.32;;;5.13;;
58071;SDS011;60383;46.626;18.866;2022-09-03T04:56:13;4.70;;;3.30;;
58071;SDS011;60383;46.626;18.866;2022-09-03T04:58:47;4.70;;;3.25;;
58071;SDS011;60383;46.626;18.866;2022-09-03T05:01:17;4.70;;;3.55;;
58071;SDS011;60383;46.626;18.866;2022-09-03T05:03:44;5.20;;;3.42;;
58071;SDS011;60383;46.626;18.866;2022-09-03T05:06:10;4.80;;;3.80;;
58071;SDS011;60383;46.626;18.866;2022-09-03T05:08:36;5.38;;;3.42;;
58071;SDS011;60383;46.626;18.866;2022-09-03T05:11:05;7.32;;;4.03;;
58071;SDS011;60383;46.626;18.866;2022-09-03T05:13:32;4.32;;;3.67;;
58071;SDS011;60383;46.626;18.866;2022-09-03T05:16:03;6.22;;;3.83;;
58071;SDS011;60383;46.626;18.866;2022-09-03T05:18:30;5.78;;;3.90;;
58071;SDS011;60383;46.626;18.866;2022-09-03T05:20:59;6.18;;;4.13;;
58071;SDS011;60383;46.626;18.866;2022-09-03T05:23:26;4.38;;;3.72;;
58071;SDS011;60383;46.626;18.866;2022-09-03T05:26:01;6.18;;;3.97;;
58071;SDS011;60383;46.626;18.866;2022-09-03T05:28:33;6.85;;;3.85;;
58071;SDS011;60383;46.626;18.866;2022-09-03T05:31:21;5.13;;;3.90;;
58071;SDS011;60383;46.626;18.866;2022-09-03T05:33:50;7.45;;;6.15;;
58071;SDS011;60383;46.626;18.866;2022-09-03T05:36:19;7.55;;;6.15;;
58071;SDS011;60383;46.626;18.866;2022-09-03T05:38:47;6.75;;;4.57;;
58071;SDS011;60383;46.626;18.866;2022-09-03T05:41:13;5.85;;;4.70;;
58071;SDS011;60383;46.626;18.866;2022-09-03T05:43:40;7.13;;;4.88;;
58071;SDS011;60383;46.626;18.866;2022-09-03T05:46:10;4.57;;;4.05;;
58071;SDS011;60383;46.626;18.866;2022-09-03T05:48:38;4.28;;;3.88;;
58071;SDS011;60383;46.626;18.866;2022-09-03T05:51:05;6.13;;;4.07;;
58071;SDS011;60383;46.626;18.866;2022-09-03T05:53:34;7.13;;;5.47;;
58071;SDS011;60383;46.626;18.866;2022-09-03T05:56:01;7.47;;;6.28;;
58071;SDS011;60383;46.626;18.866;2022-09-03T05:58:44;5.18;;;4.68;;
58071;SDS011;60383;46.626;18.866;2022-09-03T06:01:15;6.50;;;4.38;;
58071;SDS011;60383;46.626;18.866;2022-09-03T06:03:44;7.70;;;6.82;;
58071;SDS011;60383;46.626;18.866;2022-09-03T06:06:12;5.57;;;4.60;;
58071;SDS011;60383;46.626;18.866;2022-09-03T06:08:38;5.72;;;4.22;;
58071;SDS011;60383;46.626;18.866;2022-09-03T06:11:05;5.30;;;4.25;;
58071;SDS011;60383;46.626;18.866;2022-09-03T06:13:31;5.82;;;4.07;;
58071;SDS011;60383;46.626;18.866;2022-09-03T06:15:58;4.80;;;4.28;;
58071;SDS011;60383;46.626;18.866;2022-09-03T06:18:26;4.82;;;4.10;;
58071;SDS011;60383;46.626;18.866;2022-09-03T06:23:20;5.13;;;4.63;;
58071;SDS011;60383;46.626;18.866;2022-09-03T06:25:46;5.07;;;4.32;;
58071;SDS011;60383;46.626;18.866;2022-09-03T06:28:11;4.70;;;4.30;;
58071;SDS011;60383;46.626;18.866;2022-09-03T06:30:37;8.07;;;3.92;;
58071;SDS011;60383;46.626;18.866;2022-09-03T06:33:02;4.88;;;3.83;;
58071;SDS011;60383;46.626;18.866;2022-09-03T06:35:27;5.28;;;3.70;;
58071;SDS011;60383;46.626;18.866;2022-09-03T06:37:53;3.65;;;3.10;;
58071;SDS011;60383;46.626;18.866;2022-09-03T06:40:18;3.50;;;3.20;;
58071;SDS011;60383;46.626;18.866;2022-09-03T06:42:54;5.15;;;3.40;;
58071;SDS011;60383;46.626;18.866;2022-09-03T06:45:23;5.93;;;3.60;;
58071;SDS011;60383;46.626;18.866;2022-09-03T06:47:48;5.70;;;3.78;;
58071;SDS011;60383;46.626;18.866;2022-09-03T06:50:14;4.80;;;3.15;;
58071;SDS011;60383;46.626;18.866;2022-09-03T06:52:39;6.63;;;4.93;;
58071;SDS011;60383;46.626;18.866;2022-09-03T06:55:05;5.30;;;4.13;;
58071;SDS011;60383;46.626;18.866;2022-09-03T06:57:30;4.05;;;3.60;;
58071;SDS011;60383;46.626;18.866;2022-09-03T06:59:56;3.55;;;2.70;;
58071;SDS011;60383;46.626;18.866;2022-09-03T07:02:21;6.88;;;5.15;;
58071;SDS011;60383;46.626;18.866;2022-09-03T07:04:47;3.90;;;3.22;;
58071;SDS011;60383;46.626;18.866;2022-09-03T07:07:13;3.67;;;3.30;;
58071;SDS011;60383;46.626;18.866;2022-09-03T07:09:40;4.15;;;3.75;;
58071;SDS011;60383;46.626;18.866;2022-09-03T07:12:05;3.95;;;3.10;;
58071;SDS011;60383;46.626;18.866;2022-09-03T07:14:31;5.40;;;3.33;;
58071;SDS011;60383;46.626;18.866;2022-09-03T07:16:57;4.97;;;3.78;;
58071;SDS011;60383;46.626;18.866;2022-09-03T07:19:22;5.18;;;3.63;;
58071;SDS011;60383;46.626;18.866;2022-09-03T07:21:48;4.38;;;3.28;;
58071;SDS011;60383;46.626;18.866;2022-09-03T07:24:13;3.78;;;3.40;;
58071;SDS011;60383;46.626;18.866;2022-09-03T07:26:40;5.55;;;3.70;;
58071;SDS011;60383;46.626;18.866;2022-09-03T07:29:08;4.57;;;3.67;;
58071;SDS011;60383;46.626;18.866;2022-09-03T07:31:39;3.40;;;2.90;;
58071;SDS011;60383;46.626;18.866;2022-09-03T07:34:07;3.55;;;2.58;;
58071;SDS011;60383;46.626;18.866;2022-09-03T07:36:38;5.07;;;3.03;;
58071;SDS011;60383;46.626;18.866;2022-09-03T07:39:10;4.15;;;3.17;;
58071;SDS011;60383;46.626;18.866;2022-09-03T07:41:37;4.60;;;3.05;;
58071;SDS011;60383;46.626;18.866;2022-09-03T07:44:03;3.38;;;3.08;;
58071;SDS011;60383;46.626;18.866;2022-09-03T07:46:32;3.92;;;3.15;;
58071;SDS011;60383;46.626;18.866;2022-09-03T07:48:59;4.90;;;2.70;;
58071;SDS011;60383;46.626;18.866;2022-09-03T07:51:27;3.88;;;3.08;;
58071;SDS011;60383;46.626;18.866;2022-09-03T07:53:55;3.50;;;2.90;;
58071;SDS011;60383;46.626;18.866;2022-09-03T07:56:23;4.45;;;2.88;;
58071;SDS011;60383;46.626;18.866;2022-09-03T07:58:50;4.07;;;2.90;;
58071;SDS011;60383;46.626;18.866;2022-09-03T08:01:18;3.60;;;2.85;;
58071;SDS011;60383;46.626;18.866;2022-09-03T08:03:46;4.68;;;3.50;;
58071;SDS011;60383;46.626;18.866;2022-09-03T08:06:14;4.57;;;2.95;;
58071;SDS011;60383;46.626;18.866;2022-09-03T08:08:40;5.75;;;3.50;;
58071;SDS011;60383;46.626;18.866;2022-09-03T08:13:38;5.03;;;3.40;;
58071;SDS011;60383;46.626;18.866;2022-09-03T08:16:05;5.53;;;3.10;;
58071;SDS011;60383;46.626;18.866;2022-09-03T08:18:32;4.40;;;3.60;;
58071;SDS011;60383;46.626;18.866;2022-09-03T08:21:05;4.78;;;3.78;;
58071;SDS011;60383;46.626;18.866;2022-09-03T08:26:07;4.78;;;3.22;;
58071;SDS011;60383;46.626;18.866;2022-09-03T08:28:33;4.05;;;3.65;;
58071;SDS011;60383;46.626;18.866;2022-09-03T08:31:07;4.53;;;3.72;;
58071;SDS011;60383;46.626;18.866;2022-09-03T08:33:35;5.45;;;3.95;;
58071;SDS011;60383;46.626;18.866;2022-09-03T08:38:39;4.57;;;3.60;;
58071;SDS011;60383;46.626;18.866;2022-09-03T08:41:26;5.05;;;3.42;;
58071;SDS011;60383;46.626;18.866;2022-09-03T08:47:13;5.13;;;3.58;;
58071;SDS011;60383;46.626;18.866;2022-09-03T08:49:46;4.38;;;3.22;;
58071;SDS011;60383;46.626;18.866;2022-09-03T08:52:33;3.90;;;3.47;;
58071;SDS011;60383;46.626;18.866;2022-09-03T08:58:16;5.78;;;3.60;;
58071;SDS011;60383;46.626;18.866;2022-09-03T09:22:12;4.63;;;3.42;;
58071;SDS011;60383;46.626;18.866;2022-09-03T09:24:48;4.63;;;2.70;;
58071;SDS011;60383;46.626;18.866;2022-09-03T09:27:17;4.78;;;3.58;;
58071;SDS011;60383;46.626;18.866;2022-09-03T09:29:45;5.53;;;3.13;;
58071;SDS011;60383;46.626;18.866;2022-09-03T09:32:13;3.25;;;2.78;;
58071;SDS011;60383;46.626;18.866;2022-09-03T09:34:41;5.18;;;3.20;;
58071;SDS011;60383;46.626;18.866;2022-09-03T09:37:09;4.45;;;2.83;;
58071;SDS011;60383;46.626;18.866;2022-09-03T09:39:37;3.17;;;2.75;;
58071;SDS011;60383;46.626;18.866;2022-09-03T09:42:05;6.72;;;2.70;;
58071;SDS011;60383;46.626;18.866;2022-09-03T09:47:42;5.03;;;2.53;;
58071;SDS011;60383;46.626;18.866;2022-09-03T09:50:00;3.58;;;2.80;;
58071;SDS011;60383;46.626;18.866;2022-09-03T09:52:27;3.85;;;2.63;;
58071;SDS011;60383;46.626;18.866;2022-09-03T09:55:08;4.50;;;3.20;;
58071;SDS011;60383;46.626;18.866;2022-09-03T09:57:38;6.45;;;3.22;;
58071;SDS011;60383;46.626;18.866;2022-09-03T10:00:11;2.95;;;2.60;;
58071;SDS011;60383;46.626;18.866;2022-09-03T10:02:40;3.80;;;2.85;;
58071;SDS011;60383;46.626;18.866;2022-09-03T10:05:31;2.60;;;2.40;;
58071;SDS011;60383;46.626;18.866;2022-09-03T10:08:03;3.85;;;2.83;;
58071;SDS011;60383;46.626;18.866;2022-09-03T10:10:32;3.15;;;2.38;;
58071;SDS011;60383;46.626;18.866;2022-09-03T10:13:05;4.28;;;2.50;;
58071;SDS011;60383;46.626;18.866;2022-09-03T10:15:44;3.30;;;2.30;;
58071;SDS011;60383;46.626;18.866;2022-09-03T10:23:50;2.60;;;2.30;;
58071;SDS011;60383;46.626;18.866;2022-09-03T10:26:21;2.65;;;2.22;;
58071;SDS011;60383;46.626;18.866;2022-09-03T10:28:56;4.15;;;2.30;;
58071;SDS011;60383;46.626;18.866;2022-09-03T10:39:22;3.50;;;2.40;;
58071;SDS011;60383;46.626;18.866;2022-09-03T10:42:04;4.15;;;2.45;;
58071;SDS011;60383;46.626;18.866;2022-09-03T10:47:34;3.63;;;2.10;;
58071;SDS011;60383;46.626;18.866;2022-09-03T10:50:06;4.90;;;2.50;;
58071;SDS011;60383;46.626;18.866;2022-09-03T10:57:44;3.38;;;2.60;;
58071;SDS011;60383;46.626;18.866;2022-09-03T11:00:12;3.10;;;2.60;;
58071;SDS011;60383;46.626;18.866;2022-09-03T11:05:57;4.13;;;2.80;;
58071;SDS011;60383;46.626;18.866;2022-09-03T11:08:31;3.60;;;2.35;;
58071;SDS011;60383;46.626;18.866;2022-09-03T11:11:15;4.28;;;2.60;;
58071;SDS011;60383;46.626;18.866;2022-09-03T11:13:50;4.82;;;2.25;;
58071;SDS011;60383;46.626;18.866;2022-09-03T11:16:27;3.47;;;2.70;;
58071;SDS011;60383;46.626;18.866;2022-09-03T11:19:05;4.85;;;2.75;;
58071;SDS011;60383;46.626;18.866;2022-09-03T11:21:35;4.90;;;2.90;;
58071;SDS011;60383;46.626;18.866;2022-09-03T11:24:04;4.07;;;2.65;;
58071;SDS011;60383;46.626;18.866;2022-09-03T11:26:31;3.97;;;2.63;;
58071;SDS011;60383;46.626;18.866;2022-09-03T11:29:47;3.25;;;2.55;;
58071;SDS011;60383;46.626;18.866;2022-09-03T11:32:01;3.88;;;2.47;;
58071;SDS011;60383;46.626;18.866;2022-09-03T11:34:43;2.65;;;2.30;;
58071;SDS011;60383;46.626;18.866;2022-09-03T11:39:55;3.00;;;2.30;;
58071;SDS011;60383;46.626;18.866;2022-09-03T11:42:37;3.35;;;2.40;;
58071;SDS011;60383;46.626;18.866;2022-09-03T11:47:43;4.03;;;2.38;;
58071;SDS011;60383;46.626;18.866;2022-09-03T11:50:23;2.90;;;2.40;;
58071;SDS011;60383;46.626;18.866;2022-09-03T11:53:05;3.45;;;2.45;;
58071;SDS011;60383;46.626;18.866;2022-09-03T11:55:32;2.72;;;2.08;;
58071;SDS011;60383;46.626;18.866;2022-09-03T11:58:13;4.10;;;2.40;;
58071;SDS011;60383;46.626;18.866;2022-09-03T12:01:14;5.15;;;2.40;;
58071;SDS011;60383;46.626;18.866;2022-09-03T12:17:43;3.80;;;1.92;;
58071;SDS011;60383;46.626;18.866;2022-09-03T12:20:47;4.32;;;2.30;;
58071;SDS011;60383;46.626;18.866;2022-09-03T12:23:28;4.97;;;2.40;;
58071;SDS011;60383;46.626;18.866;2022-09-03T12:26:04;4.07;;;2.38;;
58071;SDS011;60383;46.626;18.866;2022-09-03T12:28:34;4.28;;;2.58;;
58071;SDS011;60383;46.626;18.866;2022-09-03T12:31:09;4.10;;;2.70;;
58071;SDS011;60383;46.626;18.866;2022-09-03T12:33:47;4.40;;;2.70;;
58071;SDS011;60383;46.626;18.866;2022-09-03T12:36:15;4.55;;;2.60;;
58071;SDS011;60383;46.626;18.866;2022-09-03T12:38:41;4.30;;;2.40;;
58071;SDS011;60383;46.626;18.866;2022-09-03T12:41:18;4.22;;;2.47;;
58071;SDS011;60383;46.626;18.866;2022-09-03T12:43:49;5.00;;;2.60;;
58071;SDS011;60383;46.626;18.866;2022-09-03T12:46:26;2.88;;;2.50;;
58071;SDS011;60383;46.626;18.866;2022-09-03T12:49:05;3.28;;;2.58;;
58071;SDS011;60383;46.626;18.866;2022-09-03T12:51:38;2.60;;;2.40;;
58071;SDS011;60383;46.626;18.866;2022-09-03T12:54:07;2.75;;;2.47;;
58071;SDS011;60383;46.626;18.866;2022-09-03T12:56:40;3.58;;;2.28;;
58071;SDS011;60383;46.626;18.866;2022-09-03T12:59:10;6.10;;;2.85;;
58071;SDS011;60383;46.626;18.866;2022-09-03T13:01:46;2.60;;;2.40;;
58071;SDS011;60383;46.626;18.866;2022-09-03T13:04:16;2.53;;;2.15;;
58071;SDS011;60383;46.626;18.866;2022-09-03T13:06:50;2.60;;;2.17;;
58071;SDS011;60383;46.626;18.866;2022-09-03T13:09:31;3.97;;;2.38;;
58071;SDS011;60383;46.626;18.866;2022-09-03T13:14:39;3.42;;;2.28;;
58071;SDS011;60383;46.626;18.866;2022-09-03T13:22:55;2.70;;;2.40;;
58071;SDS011;60383;46.626;18.866;2022-09-03T13:31:09;2.22;;;2.03;;
58071;SDS011;60383;46.626;18.866;2022-09-03T13:33:48;3.58;;;2.30;;
58071;SDS011;60383;46.626;18.866;2022-09-03T13:36:23;3.00;;;2.38;;
58071;SDS011;60383;46.626;18.866;2022-09-03T13:38:57;3.70;;;2.13;;
58071;SDS011;60383;46.626;18.866;2022-09-03T13:41:37;2.42;;;2.10;;
58071;SDS011;60383;46.626;18.866;2022-09-03T13:44:15;2.50;;;2.30;;
58071;SDS011;60383;46.626;18.866;2022-09-03T13:46:47;2.67;;;2.20;;
58071;SDS011;60383;46.626;18.866;2022-09-03T13:52:23;2.42;;;2.22;;
58071;SDS011;60383;46.626;18.866;2022-09-03T13:54:57;2.53;;;2.10;;
58071;SDS011;60383;46.626;18.866;2022-09-03T14:00:22;2.40;;;2.08;;
58071;SDS011;60383;46.626;18.866;2022-09-03T14:03:07;4.65;;;2.65;;
58071;SDS011;60383;46.626;18.866;2022-09-03T14:05:45;2.58;;;1.98;;
58071;SDS011;60383;46.626;18.866;2022-09-03T14:08:21;2.58;;;1.80;;
58071;SDS011;60383;46.626;18.866;2022-09-03T14:13:46;2.15;;;1.98;;
58071;SDS011;60383;46.626;18.866;2022-09-03T14:19:34;2.22;;;2.00;;
58071;SDS011;60383;46.626;18.866;2022-09-03T14:24:56;2.05;;;1.83;;
58071;SDS011;60383;46.626;18.866;2022-09-03T14:27:43;3.05;;;1.70;;
58071;SDS011;60383;46.626;18.866;2022-09-03T14:35:32;2.78;;;2.00;;
58071;SDS011;60383;46.626;18.866;2022-09-03T14:41:09;2.58;;;1.80;;
58071;SDS011;60383;46.626;18.866;2022-09-03T14:51:57;2.63;;;2.15;;
58071;SDS011;60383;46.626;18.866;2022-09-03T14:54:48;2.70;;;2.28;;
58071;SDS011;60383;46.626;18.866;2022-09-03T15:00:16;3.85;;;2.25;;
58071;SDS011;60383;46.626;18.866;2022-09-03T15:08:35;4.35;;;2.17;;
58071;SDS011;60383;46.626;18.866;2022-09-03T15:11:09;2.58;;;2.17;;
58071;SDS011;60383;46.626;18.866;2022-09-03T15:13:48;3.33;;;2.15;;
58071;SDS011;60383;46.626;18.866;2022-09-03T15:16:27;2.30;;;1.90;;
58071;SDS011;60383;46.626;18.866;2022-09-03T15:30:17;3.75;;;2.20;;
58071;SDS011;60383;46.626;18.866;2022-09-03T15:32:48;3.25;;;2.20;;
58071;SDS011;60383;46.626;18.866;2022-09-03T15:40:56;3.33;;;2.47;;
58071;SDS011;60383;46.626;18.866;2022-09-03T15:43:31;2.95;;;2.47;;
58071;SDS011;60383;46.626;18.866;2022-09-03T15:52:09;2.72;;;2.53;;
58071;SDS011;60383;46.626;18.866;2022-09-03T15:57:39;4.65;;;2.90;;
58071;SDS011;60383;46.626;18.866;2022-09-03T16:00:12;3.40;;;2.50;;
58071;SDS011;60383;46.626;18.866;2022-09-03T16:05:27;2.92;;;2.33;;
58071;SDS011;60383;46.626;18.866;2022-09-03T16:08:12;2.90;;;2.47;;
58071;SDS011;60383;46.626;18.866;2022-09-03T16:10:48;3.85;;;3.25;;
58071;SDS011;60383;46.626;18.866;2022-09-03T16:16:05;4.10;;;2.45;;
58071;SDS011;60383;46.626;18.866;2022-09-03T16:18:54;2.67;;;2.47;;
58071;SDS011;60383;46.626;18.866;2022-09-03T16:24:16;5.20;;;2.70;;
58071;SDS011;60383;46.626;18.866;2022-09-03T16:26:49;2.95;;;2.70;;
58071;SDS011;60383;46.626;18.866;2022-09-03T16:30:00;3.55;;;2.60;;
58071;SDS011;60383;46.626;18.866;2022-09-03T16:35:23;5.35;;;2.70;;
58071;SDS011;60383;46.626;18.866;2022-09-03T16:49:45;5.10;;;2.83;;
58071;SDS011;60383;46.626;18.866;2022-09-03T16:55:20;4.70;;;2.90;;
58071;SDS011;60383;46.626;18.866;2022-09-03T17:06:37;4.68;;;3.22;;
58071;SDS011;60383;46.626;18.866;2022-09-03T17:17:28;4.00;;;3.60;;
58071;SDS011;60383;46.626;18.866;2022-09-03T17:20:20;5.70;;;2.97;;
58071;SDS011;60383;46.626;18.866;2022-09-03T17:25:39;4.50;;;3.35;;
58071;SDS011;60383;46.626;18.866;2022-09-03T17:33:42;9.73;;;5.03;;
58071;SDS011;60383;46.626;18.866;2022-09-03T17:36:23;5.67;;;3.47;;
58071;SDS011;60383;46.626;18.866;2022-09-03T17:39:15;4.45;;;3.42;;
58071;SDS011;60383;46.626;18.866;2022-09-03T17:41:52;6.28;;;3.70;;
58071;SDS011;60383;46.626;18.866;2022-09-03T17:44:22;6.85;;;3.50;;
58071;SDS011;60383;46.626;18.866;2022-09-03T17:47:06;6.80;;;4.80;;
58071;SDS011;60383;46.626;18.866;2022-09-03T17:49:44;4.82;;;3.60;;
58071;SDS011;60383;46.626;18.866;2022-09-03T17:57:53;4.97;;;3.90;;
58071;SDS011;60383;46.626;18.866;2022-09-03T18:00:43;9.35;;;3.67;;
58071;SDS011;60383;46.626;18.866;2022-09-03T18:05:45;5.97;;;3.90;;
58071;SDS011;60383;46.626;18.866;2022-09-03T18:08:19;6.05;;;4.25;;
58071;SDS011;60383;46.626;18.866;2022-09-03T18:11:06;7.10;;;3.75;;
58071;SDS011;60383;46.626;18.866;2022-09-03T18:18:50;4.13;;;3.53;;
58071;SDS011;60383;46.626;18.866;2022-09-03T18:21:21;4.65;;;3.33;;
58071;SDS011;60383;46.626;18.866;2022-09-03T18:30:47;6.00;;;3.80;;
58071;SDS011;60383;46.626;18.866;2022-09-03T18:33:31;4.35;;;3.55;;
58071;SDS011;60383;46.626;18.866;2022-09-03T18:36:15;4.38;;;3.42;;
58071;SDS011;60383;46.626;18.866;2022-09-03T18:54:30;3.93;;;3.50;;
58071;SDS011;60383;46.626;18.866;2022-09-03T19:00:35;5.28;;;3.05;;
58071;SDS011;60383;46.626;18.866;2022-09-03T19:03:34;6.95;;;3.38;;
58071;SDS011;60383;46.626;18.866;2022-09-03T19:06:49;7.45;;;3.40;;
58071;SDS011;60383;46.626;18.866;2022-09-03T19:09:44;3.35;;;3.00;;
58071;SDS011;60383;46.626;18.866;2022-09-03T19:22:18;5.22;;;4.03;;
58071;SDS011;60383;46.626;18.866;2022-09-03T19:25:14;5.88;;;3.70;;
58071;SDS011;60383;46.626;18.866;2022-09-03T19:30:50;8.07;;;3.65;;
58071;SDS011;60383;46.626;18.866;2022-09-03T19:39:42;3.83;;;3.38;;
58071;SDS011;60383;46.626;18.866;2022-09-03T19:48:28;3.92;;;3.30;;
58071;SDS011;60383;46.626;18.866;2022-09-03T19:51:29;5.55;;;3.63;;
58071;SDS011;60383;46.626;18.866;2022-09-03T19:54:19;4.10;;;3.60;;
58071;SDS011;60383;46.626;18.866;2022-09-03T19:57:07;4.33;;;3.93;;
58071;SDS011;60383;46.626;18.866;2022-09-03T19:59:56;3.53;;;3.22;;
58071;SDS011;60383;46.626;18.866;2022-09-03T20:02:41;3.60;;;3.25;;
58071;SDS011;60383;46.626;18.866;2022-09-03T20:05:30;5.28;;;3.63;;
58071;SDS011;60383;46.626;18.866;2022-09-03T20:08:15;5.28;;;3.47;;
58071;SDS011;60383;46.626;18.866;2022-09-03T20:10:59;4.70;;;3.80;;
58071;SDS011;60383;46.626;18.866;2022-09-03T20:13:28;4.13;;;3.67;;
58071;SDS011;60383;46.626;18.866;2022-09-03T20:16:28;5.55;;;3.70;;
58071;SDS011;60383;46.626;18.866;2022-09-03T20:21:29;3.80;;;3.25;;
58071;SDS011;60383;46.626;18.866;2022-09-03T20:24:02;3.95;;;3.55;;
58071;SDS011;60383;46.626;18.866;2022-09-03T20:26:44;4.00;;;3.58;;
58071;SDS011;60383;46.626;18.866;2022-09-03T20:34:49;4.93;;;3.70;;
58071;SDS011;60383;46.626;18.866;2022-09-03T20:45:10;3.85;;;3.55;;
58071;SDS011;60383;46.626;18.866;2022-09-03T20:47:45;4.25;;;3.85;;
58071;SDS011;60383;46.626;18.866;2022-09-03T20:53:34;4.13;;;3.72;;
58071;SDS011;60383;46.626;18.866;2022-09-03T20:59:12;4.30;;;3.90;;
58071;SDS011;60383;46.626;18.866;2022-09-03T21:10:35;4.60;;;4.00;;
58071;SDS011;60383;46.626;18.866;2022-09-03T21:13:30;4.97;;;3.80;;
58071;SDS011;60383;46.626;18.866;2022-09-03T21:18:55;6.22;;;4.43;;
58071;SDS011;60383;46.626;18.866;2022-09-03T21:24:19;4.22;;;3.80;;
58071;SDS011;60383;46.626;18.866;2022-09-03T21:26:56;5.72;;;4.40;;
58071;SDS011;60383;46.626;18.866;2022-09-03T21:29:28;5.20;;;4.07;;
58071;SDS011;60383;46.626;18.866;2022-09-03T21:37:40;4.20;;;3.80;;
58071;SDS011;60383;46.626;18.866;2022-09-03T21:40:13;4.22;;;3.83;;
58071;SDS011;60383;46.626;18.866;2022-09-03T21:42:45;4.35;;;3.42;;
58071;SDS011;60383;46.626;18.866;2022-09-03T21:48:05;5.55;;;3.90;;
58071;SDS011;60383;46.626;18.866;2022-09-03T22:04:07;5.03;;;4.45;;
58071;SDS011;60383;46.626;18.866;2022-09-03T22:07:22;4.45;;;4.05;;
58071;SDS011;60383;46.626;18.866;2022-09-03T22:10:16;6.05;;;4.80;;
58071;SDS011;60383;46.626;18.866;2022-09-03T22:15:25;5.18;;;4.22;;